sensor_id;sensor_type;location;lat;lon;timestamp;temperature;humidity
46458;DHT22;32155;54.076;12.092;2022-07-29T00:00:40;12.30;99.90
46458;DHT22;32155;54.076;12.092;2022-07-29T00:03:12;12.30;99.90
46458;DHT22;32155;54.076;12.092;2022-07-29T00:05:39;12.20;99.90
46458;DHT22;32155;54.076;12.092;2022-07-29T00:08:05;12.20;99.90
46458;DHT22;32155;54.076;12.092;2022-07-29T00:10:31;12.10;99.90
46458;DHT22;32155;54.076;12.092;2022-07-29T00:12:56;12.10;99.90
46458;DHT22;32155;54.076;12.092;2022-07-29T00:15:22;12.10;99.90
46458;DHT22;32155;54.076;12.092;2022-07-29T00:17:47;12.20;99.90
46458;DHT22;32155;54.076;12.092;2022-07-29T00:20:16;12.20;99.90
46458;DHT22;32155;54.076;12.092;2022-07-29T00:22:41;12.10;99.90
46458;DHT22;32155;54.076;12.092;2022-07-29T00:25:09;12.10;99.90
46458;DHT22;32155;54.076;12.092;2022-07-29T00:27:35;12.00;99.90
46458;DHT22;32155;54.076;12.092;2022-07-29T00:30:02;12.00;99.90
46458;DHT22;32155;54.076;12.092;2022-07-29T00:32:31;11.90;99.90
46458;DHT22;32155;54.076;12.092;2022-07-29T00:34:56;11.90;99.90
46458;DHT22;32155;54.076;12.092;2022-07-29T00:37:41;11.90;99.90
46458;DHT22;32155;54.076;12.092;2022-07-29T00:40:06;11.90;99.90
46458;DHT22;32155;54.076;12.092;2022-07-29T00:42:44;11.90;99.90
46458;DHT22;32155;54.076;12.092;2022-07-29T00:45:10;11.90;99.90
46458;DHT22;32155;54.076;12.092;2022-07-29T00:47:35;11.90;99.90
46458;DHT22;32155;54.076;12.092;2022-07-29T00:50:01;11.90;99.90
46458;DHT22;32155;54.076;12.092;2022-07-29T00:52:26;11.90;99.90
46458;DHT22;32155;54.076;12.092;2022-07-29T00:54:52;12.10;99.90
46458;DHT22;32155;54.076;12.092;2022-07-29T00:57:17;12.10;99.90
46458;DHT22;32155;54.076;12.092;2022-07-29T00:59:43;12.10;99.90
46458;DHT22;32155;54.076;12.092;2022-07-29T01:02:08;12.20;99.90
46458;DHT22;32155;54.076;12.092;2022-07-29T01:04:34;12.20;99.90
46458;DHT22;32155;54.076;12.092;2022-07-29T01:07:00;12.00;99.90
46458;DHT22;32155;54.076;12.092;2022-07-29T01:09:26;11.90;99.90
46458;DHT22;32155;54.076;12.092;2022-07-29T01:11:52;11.90;99.90
46458;DHT22;32155;54.076;12.092;2022-07-29T01:14:18;11.80;99.90
46458;DHT22;32155;54.076;12.092;2022-07-29T01:16:50;11.80;99.90
46458;DHT22;32155;54.076;12.092;2022-07-29T01:21:57;11.80;99.90
46458;DHT22;32155;54.076;12.092;2022-07-29T01:24:42;11.80;99.90
46458;DHT22;32155;54.076;12.092;2022-07-29T01:27:26;11.80;99.90
46458;DHT22;32155;54.076;12.092;2022-07-29T01:29:59;11.70;99.90
46458;DHT22;32155;54.076;12.092;2022-07-29T01:32:31;11.60;99.90
46458;DHT22;32155;54.076;12.092;2022-07-29T01:34:59;11.60;99.90
46458;DHT22;32155;54.076;12.092;2022-07-29T01:37:38;11.60;99.90
46458;DHT22;32155;54.076;12.092;2022-07-29T01:40:05;11.60;99.90
46458;DHT22;32155;54.076;12.092;2022-07-29T01:42:43;11.60;99.90
46458;DHT22;32155;54.076;12.092;2022-07-29T01:45:13;11.60;99.90
46458;DHT22;32155;54.076;12.092;2022-07-29T01:50:28;11.60;99.90
46458;DHT22;32155;54.076;12.092;2022-07-29T01:52:59;11.60;99.90
46458;DHT22;32155;54.076;12.092;2022-07-29T01:55:27;11.50;99.90
46458;DHT22;32155;54.076;12.092;2022-07-29T01:57:53;11.50;99.90
46458;DHT22;32155;54.076;12.092;2022-07-29T02:00:20;11.50;99.90
46458;DHT22;32155;54.076;12.092;2022-07-29T02:02:47;11.50;99.90
46458;DHT22;32155;54.076;12.092;2022-07-29T02:05:14;11.50;99.90
46458;DHT22;32155;54.076;12.092;2022-07-29T03:56:15;12.30;99.90
46458;DHT22;32155;54.076;12.092;2022-07-29T05:13:22;14.60;99.90
46458;DHT22;32155;54.076;12.092;2022-07-29T05:19:06;14.80;99.90
46458;DHT22;32155;54.076;12.092;2022-07-29T05:21:31;15.00;99.90
46458;DHT22;32155;54.076;12.092;2022-07-29T05:24:05;15.10;99.90
46458;DHT22;32155;54.076;12.092;2022-07-29T05:32:44;15.50;99.90
46458;DHT22;32155;54.076;12.092;2022-07-29T05:35:14;15.70;99.90
46458;DHT22;32155;54.076;12.092;2022-07-29T05:37:42;16.00;99.90
46458;DHT22;32155;54.076;12.092;2022-07-29T05:40:10;16.30;99.90
46458;DHT22;32155;54.076;12.092;2022-07-29T05:42:37;16.90;99.90
46458;DHT22;32155;54.076;12.092;2022-07-29T05:45:02;17.40;99.90
46458;DHT22;32155;54.076;12.092;2022-07-29T05:47:31;17.40;99.90
46458;DHT22;32155;54.076;12.092;2022-07-29T05:49:59;17.50;99.90
46458;DHT22;32155;54.076;12.092;2022-07-29T05:52:34;17.70;99.90
46458;DHT22;32155;54.076;12.092;2022-07-29T05:55:23;17.50;99.90
46458;DHT22;32155;54.076;12.092;2022-07-29T06:01:46;17.90;99.90
46458;DHT22;32155;54.076;12.092;2022-07-29T06:03:59;18.20;99.90
46458;DHT22;32155;54.076;12.092;2022-07-29T06:06:54;18.30;99.90
46458;DHT22;32155;54.076;12.092;2022-07-29T06:12:25;18.60;99.90
46458;DHT22;32155;54.076;12.092;2022-07-29T06:24:44;19.40;99.90
46458;DHT22;32155;54.076;12.092;2022-07-29T06:33:47;19.60;99.90
46458;DHT22;32155;54.076;12.092;2022-07-29T06:39:23;20.90;99.90
46458;DHT22;32155;54.076;12.092;2022-07-29T06:45:15;22.60;99.90
46458;DHT22;32155;54.076;12.092;2022-07-29T07:03:52;22.30;99.90
46458;DHT22;32155;54.076;12.092;2022-07-29T07:07:01;23.30;99.90
46458;DHT22;32155;54.076;12.092;2022-07-29T07:09:54;24.00;99.90
46458;DHT22;32155;54.076;12.092;2022-07-29T07:15:52;24.70;99.90
46458;DHT22;32155;54.076;12.092;2022-07-29T07:18:45;25.00;99.90
46458;DHT22;32155;54.076;12.092;2022-07-29T07:21:15;25.00;99.90
46458;DHT22;32155;54.076;12.092;2022-07-29T07:24:03;25.00;99.90
46458;DHT22;32155;54.076;12.092;2022-07-29T07:27:06;25.30;99.90
46458;DHT22;32155;54.076;12.092;2022-07-29T07:32:48;25.60;99.90
46458;DHT22;32155;54.076;12.092;2022-07-29T07:35:32;25.70;99.90
46458;DHT22;32155;54.076;12.092;2022-07-29T07:38:12;26.50;99.90
46458;DHT22;32155;54.076;12.092;2022-07-29T07:40:57;27.40;99.90
46458;DHT22;32155;54.076;12.092;2022-07-29T07:46:38;28.70;99.90
46458;DHT22;32155;54.076;12.092;2022-07-29T07:51:59;28.40;99.90
46458;DHT22;32155;54.076;12.092;2022-07-29T07:54:40;28.20;99.90
46458;DHT22;32155;54.076;12.092;2022-07-29T07:57:24;28.60;99.90
46458;DHT22;32155;54.076;12.092;2022-07-29T08:00:16;29.10;99.90
46458;DHT22;32155;54.076;12.092;2022-07-29T08:03:07;30.10;99.60
46458;DHT22;32155;54.076;12.092;2022-07-29T08:05:51;31.00;98.50
46458;DHT22;32155;54.076;12.092;2022-07-29T08:11:54;31.70;96.60
46458;DHT22;32155;54.076;12.092;2022-07-29T08:14:40;31.20;94.50
46458;DHT22;32155;54.076;12.092;2022-07-29T08:17:06;30.00;94.80
46458;DHT22;32155;54.076;12.092;2022-07-29T08:19:33;28.50;95.80
46458;DHT22;32155;54.076;12.092;2022-07-29T08:22:02;28.00;96.70
46458;DHT22;32155;54.076;12.092;2022-07-29T08:24:28;27.30;97.70
46458;DHT22;32155;54.076;12.092;2022-07-29T08:27:12;27.30;97.80
46458;DHT22;32155;54.076;12.092;2022-07-29T08:29:38;27.10;98.50
46458;DHT22;32155;54.076;12.092;2022-07-29T08:32:03;27.30;98.90
46458;DHT22;32155;54.076;12.092;2022-07-29T08:34:29;27.30;98.80
46458;DHT22;32155;54.076;12.092;2022-07-29T08:36:55;26.30;99.40
46458;DHT22;32155;54.076;12.092;2022-07-29T08:39:24;26.30;99.90
46458;DHT22;32155;54.076;12.092;2022-07-29T08:41:50;27.10;99.90
46458;DHT22;32155;54.076;12.092;2022-07-29T08:44:17;27.10;99.30
46458;DHT22;32155;54.076;12.092;2022-07-29T08:46:47;27.60;99.40
46458;DHT22;32155;54.076;12.092;2022-07-29T08:49:12;27.60;98.80
46458;DHT22;32155;54.076;12.092;2022-07-29T08:51:41;27.80;98.20
46458;DHT22;32155;54.076;12.092;2022-07-29T08:54:08;28.70;97.90
46458;DHT22;32155;54.076;12.092;2022-07-29T08:56:34;30.00;97.40
46458;DHT22;32155;54.076;12.092;2022-07-29T08:59:03;31.80;95.10
46458;DHT22;32155;54.076;12.092;2022-07-29T09:01:29;31.90;93.30
46458;DHT22;32155;54.076;12.092;2022-07-29T09:03:57;33.40;90.70
46458;DHT22;32155;54.076;12.092;2022-07-29T09:06:23;34.10;88.70
46458;DHT22;32155;54.076;12.092;2022-07-29T09:08:53;34.50;86.80
46458;DHT22;32155;54.076;12.092;2022-07-29T09:11:19;33.40;86.60
46458;DHT22;32155;54.076;12.092;2022-07-29T09:13:45;32.30;84.20
46458;DHT22;32155;54.076;12.092;2022-07-29T09:16:11;30.10;82.60
46458;DHT22;32155;54.076;12.092;2022-07-29T09:18:40;29.10;87.00
46458;DHT22;32155;54.076;12.092;2022-07-29T09:21:07;29.10;90.40
46458;DHT22;32155;54.076;12.092;2022-07-29T09:24:07;30.40;89.50
46458;DHT22;32155;54.076;12.092;2022-07-29T09:26:51;30.40;87.80
46458;DHT22;32155;54.076;12.092;2022-07-29T09:29:17;30.90;88.40
46458;DHT22;32155;54.076;12.092;2022-07-29T09:31:48;31.00;83.40
46458;DHT22;32155;54.076;12.092;2022-07-29T09:34:15;30.40;82.90
46458;DHT22;32155;54.076;12.092;2022-07-29T09:36:47;30.10;84.80
46458;DHT22;32155;54.076;12.092;2022-07-29T09:39:13;29.20;86.50
46458;DHT22;32155;54.076;12.092;2022-07-29T09:41:46;29.00;88.80
46458;DHT22;32155;54.076;12.092;2022-07-29T09:44:12;29.50;87.30
46458;DHT22;32155;54.076;12.092;2022-07-29T09:46:38;29.70;87.00
46458;DHT22;32155;54.076;12.092;2022-07-29T09:49:10;29.00;87.70
46458;DHT22;32155;54.076;12.092;2022-07-29T09:51:36;29.10;87.30
46458;DHT22;32155;54.076;12.092;2022-07-29T09:54:07;29.50;88.70
46458;DHT22;32155;54.076;12.092;2022-07-29T09:56:46;29.30;87.90
46458;DHT22;32155;54.076;12.092;2022-07-29T09:59:13;29.20;88.90
46458;DHT22;32155;54.076;12.092;2022-07-29T10:01:39;29.00;90.10
46458;DHT22;32155;54.076;12.092;2022-07-29T10:04:05;29.10;89.10
46458;DHT22;32155;54.076;12.092;2022-07-29T10:06:30;28.50;89.60
46458;DHT22;32155;54.076;12.092;2022-07-29T10:09:09;28.60;88.50
46458;DHT22;32155;54.076;12.092;2022-07-29T10:11:37;28.00;90.20
46458;DHT22;32155;54.076;12.092;2022-07-29T10:14:03;28.80;90.10
46458;DHT22;32155;54.076;12.092;2022-07-29T10:16:30;29.30;89.00
46458;DHT22;32155;54.076;12.092;2022-07-29T10:18:58;29.80;88.50
46458;DHT22;32155;54.076;12.092;2022-07-29T10:21:27;29.50;88.30
46458;DHT22;32155;54.076;12.092;2022-07-29T10:23:53;28.70;88.70
46458;DHT22;32155;54.076;12.092;2022-07-29T10:26:19;29.00;90.10
46458;DHT22;32155;54.076;12.092;2022-07-29T10:28:45;29.30;86.60
46458;DHT22;32155;54.076;12.092;2022-07-29T10:31:19;30.30;85.80
46458;DHT22;32155;54.076;12.092;2022-07-29T10:39:27;34.20;74.70
46458;DHT22;32155;54.076;12.092;2022-07-29T10:44:41;36.10;72.30
46458;DHT22;32155;54.076;12.092;2022-07-29T10:47:08;35.80;68.40
46458;DHT22;32155;54.076;12.092;2022-07-29T10:49:33;34.80;69.20
46458;DHT22;32155;54.076;12.092;2022-07-29T10:54:38;33.30;71.10
46458;DHT22;32155;54.076;12.092;2022-07-29T10:57:18;33.30;71.70
46458;DHT22;32155;54.076;12.092;2022-07-29T10:59:46;34.20;71.50
46458;DHT22;32155;54.076;12.092;2022-07-29T11:07:24;34.00;69.50
46458;DHT22;32155;54.076;12.092;2022-07-29T11:15:03;32.30;74.50
46458;DHT22;32155;54.076;12.092;2022-07-29T11:17:52;31.90;73.70
46458;DHT22;32155;54.076;12.092;2022-07-29T11:23:01;30.70;76.20
46458;DHT22;32155;54.076;12.092;2022-07-29T11:25:26;30.70;76.10
46458;DHT22;32155;54.076;12.092;2022-07-29T11:27:52;30.50;77.30
46458;DHT22;32155;54.076;12.092;2022-07-29T11:30:19;30.80;78.00
46458;DHT22;32155;54.076;12.092;2022-07-29T11:32:45;30.30;77.70
46458;DHT22;32155;54.076;12.092;2022-07-29T11:35:16;30.50;78.50
46458;DHT22;32155;54.076;12.092;2022-07-29T11:37:42;30.70;78.70
46458;DHT22;32155;54.076;12.092;2022-07-29T11:40:11;30.50;78.50
46458;DHT22;32155;54.076;12.092;2022-07-29T11:42:40;30.70;79.00
46458;DHT22;32155;54.076;12.092;2022-07-29T11:45:16;30.70;78.30
46458;DHT22;32155;54.076;12.092;2022-07-29T11:50:12;30.80;76.30
46458;DHT22;32155;54.076;12.092;2022-07-29T11:52:43;30.40;77.80
46458;DHT22;32155;54.076;12.092;2022-07-29T11:55:14;30.40;78.50
46458;DHT22;32155;54.076;12.092;2022-07-29T11:57:47;30.50;78.40
46458;DHT22;32155;54.076;12.092;2022-07-29T12:00:24;30.70;79.80
46458;DHT22;32155;54.076;12.092;2022-07-29T12:02:50;30.60;78.90
46458;DHT22;32155;54.076;12.092;2022-07-29T12:05:16;31.30;77.40
46458;DHT22;32155;54.076;12.092;2022-07-29T12:07:41;31.10;77.20
46458;DHT22;32155;54.076;12.092;2022-07-29T12:10:09;31.00;77.90
46458;DHT22;32155;54.076;12.092;2022-07-29T12:12:35;30.30;78.20
46458;DHT22;32155;54.076;12.092;2022-07-29T12:15:14;31.00;77.90
46458;DHT22;32155;54.076;12.092;2022-07-29T12:17:40;31.20;77.10
46458;DHT22;32155;54.076;12.092;2022-07-29T12:20:06;30.70;77.60
46458;DHT22;32155;54.076;12.092;2022-07-29T12:22:33;30.50;78.80
46458;DHT22;32155;54.076;12.092;2022-07-29T12:25:08;29.80;79.50
46458;DHT22;32155;54.076;12.092;2022-07-29T12:27:35;29.70;80.20
46458;DHT22;32155;54.076;12.092;2022-07-29T12:30:04;29.70;80.80
46458;DHT22;32155;54.076;12.092;2022-07-29T12:32:33;29.10;78.50
46458;DHT22;32155;54.076;12.092;2022-07-29T12:35:02;28.80;79.90
46458;DHT22;32155;54.076;12.092;2022-07-29T12:37:28;28.20;81.10
46458;DHT22;32155;54.076;12.092;2022-07-29T12:39:54;28.10;82.90
46458;DHT22;32155;54.076;12.092;2022-07-29T12:42:19;28.00;82.00
46458;DHT22;32155;54.076;12.092;2022-07-29T12:47:11;27.80;83.30
46458;DHT22;32155;54.076;12.092;2022-07-29T12:49:37;27.70;83.00
46458;DHT22;32155;54.076;12.092;2022-07-29T12:52:49;28.00;82.20
46458;DHT22;32155;54.076;12.092;2022-07-29T12:54:49;28.30;81.80
46458;DHT22;32155;54.076;12.092;2022-07-29T12:57:15;28.30;82.00
46458;DHT22;32155;54.076;12.092;2022-07-29T12:59:43;28.40;81.50
46458;DHT22;32155;54.076;12.092;2022-07-29T13:02:20;28.60;83.50
46458;DHT22;32155;54.076;12.092;2022-07-29T13:04:54;28.90;80.70
46458;DHT22;32155;54.076;12.092;2022-07-29T13:07:23;28.70;78.80
46458;DHT22;32155;54.076;12.092;2022-07-29T13:09:49;28.60;78.00
46458;DHT22;32155;54.076;12.092;2022-07-29T13:12:14;28.50;75.40
46458;DHT22;32155;54.076;12.092;2022-07-29T13:14:46;28.20;76.30
46458;DHT22;32155;54.076;12.092;2022-07-29T13:20:15;27.90;76.80
46458;DHT22;32155;54.076;12.092;2022-07-29T13:22:41;28.20;76.70
46458;DHT22;32155;54.076;12.092;2022-07-29T13:25:12;28.10;76.60
46458;DHT22;32155;54.076;12.092;2022-07-29T13:27:38;27.90;76.80
46458;DHT22;32155;54.076;12.092;2022-07-29T13:30:05;28.20;77.90
46458;DHT22;32155;54.076;12.092;2022-07-29T13:32:31;28.60;76.30
46458;DHT22;32155;54.076;12.092;2022-07-29T13:35:00;28.60;77.50
46458;DHT22;32155;54.076;12.092;2022-07-29T13:37:29;28.70;80.40
46458;DHT22;32155;54.076;12.092;2022-07-29T13:39:55;29.10;80.10
46458;DHT22;32155;54.076;12.092;2022-07-29T13:42:21;29.20;77.10
46458;DHT22;32155;54.076;12.092;2022-07-29T13:44:47;28.70;78.80
46458;DHT22;32155;54.076;12.092;2022-07-29T13:47:16;29.20;82.50
46458;DHT22;32155;54.076;12.092;2022-07-29T13:49:41;29.70;81.60
46458;DHT22;32155;54.076;12.092;2022-07-29T13:52:07;29.80;81.40
46458;DHT22;32155;54.076;12.092;2022-07-29T13:54:32;29.80;76.60
46458;DHT22;32155;54.076;12.092;2022-07-29T13:57:01;30.20;76.30
46458;DHT22;32155;54.076;12.092;2022-07-29T13:59:26;30.50;73.50
46458;DHT22;32155;54.076;12.092;2022-07-29T14:01:52;30.00;70.80
46458;DHT22;32155;54.076;12.092;2022-07-29T14:04:17;29.50;73.70
46458;DHT22;32155;54.076;12.092;2022-07-29T14:06:43;28.90;78.10
46458;DHT22;32155;54.076;12.092;2022-07-29T14:09:11;28.60;81.90
46458;DHT22;32155;54.076;12.092;2022-07-29T14:11:43;29.10;83.20
46458;DHT22;32155;54.076;12.092;2022-07-29T14:14:08;28.70;85.40
46458;DHT22;32155;54.076;12.092;2022-07-29T14:16:35;29.00;86.20
46458;DHT22;32155;54.076;12.092;2022-07-29T14:19:02;28.50;86.30
46458;DHT22;32155;54.076;12.092;2022-07-29T14:21:28;28.50;86.70
46458;DHT22;32155;54.076;12.092;2022-07-29T14:23:53;28.20;87.90
46458;DHT22;32155;54.076;12.092;2022-07-29T14:26:20;28.40;89.30
46458;DHT22;32155;54.076;12.092;2022-07-29T14:31:15;28.30;88.90
46458;DHT22;32155;54.076;12.092;2022-07-29T14:36:11;28.10;87.80
46458;DHT22;32155;54.076;12.092;2022-07-29T14:38:40;27.70;87.00
46458;DHT22;32155;54.076;12.092;2022-07-29T14:41:06;27.60;88.20
46458;DHT22;32155;54.076;12.092;2022-07-29T14:43:32;27.90;86.90
46458;DHT22;32155;54.076;12.092;2022-07-29T14:45:59;27.60;87.30
46458;DHT22;32155;54.076;12.092;2022-07-29T14:48:25;27.60;89.10
46458;DHT22;32155;54.076;12.092;2022-07-29T14:50:51;27.70;88.00
46458;DHT22;32155;54.076;12.092;2022-07-29T14:53:16;27.40;87.40
46458;DHT22;32155;54.076;12.092;2022-07-29T14:55:43;27.00;88.80
46458;DHT22;32155;54.076;12.092;2022-07-29T14:58:08;27.10;88.80
46458;DHT22;32155;54.076;12.092;2022-07-29T15:00:34;27.20;89.40
46458;DHT22;32155;54.076;12.092;2022-07-29T15:03:04;27.10;89.00
46458;DHT22;32155;54.076;12.092;2022-07-29T15:05:30;27.20;88.90
46458;DHT22;32155;54.076;12.092;2022-07-29T15:07:56;27.00;87.90
46458;DHT22;32155;54.076;12.092;2022-07-29T15:10:28;27.00;88.50
46458;DHT22;32155;54.076;12.092;2022-07-29T15:12:54;26.90;90.00
46458;DHT22;32155;54.076;12.092;2022-07-29T15:15:21;26.70;90.60
46458;DHT22;32155;54.076;12.092;2022-07-29T15:17:47;26.80;90.50
46458;DHT22;32155;54.076;12.092;2022-07-29T15:20:15;26.60;90.80
46458;DHT22;32155;54.076;12.092;2022-07-29T15:22:41;26.70;91.30
46458;DHT22;32155;54.076;12.092;2022-07-29T15:25:08;26.40;90.60
46458;DHT22;32155;54.076;12.092;2022-07-29T15:27:33;26.60;90.70
46458;DHT22;32155;54.076;12.092;2022-07-29T15:29:59;26.90;90.70
46458;DHT22;32155;54.076;12.092;2022-07-29T15:32:27;27.10;90.00
46458;DHT22;32155;54.076;12.092;2022-07-29T15:34:52;27.30;90.20
46458;DHT22;32155;54.076;12.092;2022-07-29T15:37:20;27.20;89.90
46458;DHT22;32155;54.076;12.092;2022-07-29T15:39:46;27.00;90.00
46458;DHT22;32155;54.076;12.092;2022-07-29T15:42:11;27.20;90.10
46458;DHT22;32155;54.076;12.092;2022-07-29T15:44:37;27.20;89.50
46458;DHT22;32155;54.076;12.092;2022-07-29T15:47:02;26.90;90.00
46458;DHT22;32155;54.076;12.092;2022-07-29T15:49:29;26.90;90.10
46458;DHT22;32155;54.076;12.092;2022-07-29T15:51:58;26.70;91.20
46458;DHT22;32155;54.076;12.092;2022-07-29T15:54:24;26.70;91.00
46458;DHT22;32155;54.076;12.092;2022-07-29T15:56:50;26.40;91.50
46458;DHT22;32155;54.076;12.092;2022-07-29T15:59:15;26.40;92.10
46458;DHT22;32155;54.076;12.092;2022-07-29T16:01:41;26.40;92.10
46458;DHT22;32155;54.076;12.092;2022-07-29T16:04:06;26.00;92.30
46458;DHT22;32155;54.076;12.092;2022-07-29T16:06:32;26.00;92.80
46458;DHT22;32155;54.076;12.092;2022-07-29T16:08:57;26.00;93.00
46458;DHT22;32155;54.076;12.092;2022-07-29T16:11:24;26.00;93.10
46458;DHT22;32155;54.076;12.092;2022-07-29T16:13:50;25.90;93.40
46458;DHT22;32155;54.076;12.092;2022-07-29T16:16:17;25.70;93.90
46458;DHT22;32155;54.076;12.092;2022-07-29T16:18:44;25.60;94.00
46458;DHT22;32155;54.076;12.092;2022-07-29T16:21:10;25.50;94.10
46458;DHT22;32155;54.076;12.092;2022-07-29T16:23:36;25.30;94.60
46458;DHT22;32155;54.076;12.092;2022-07-29T16:26:02;25.10;95.20
46458;DHT22;32155;54.076;12.092;2022-07-29T16:28:30;25.30;95.10
46458;DHT22;32155;54.076;12.092;2022-07-29T16:30:55;25.30;95.40
46458;DHT22;32155;54.076;12.092;2022-07-29T16:33:21;25.40;95.90
46458;DHT22;32155;54.076;12.092;2022-07-29T16:35:48;25.20;96.60
46458;DHT22;32155;54.076;12.092;2022-07-29T16:38:16;25.20;97.60
46458;DHT22;32155;54.076;12.092;2022-07-29T16:40:43;25.10;98.30
46458;DHT22;32155;54.076;12.092;2022-07-29T16:43:09;25.00;99.00
46458;DHT22;32155;54.076;12.092;2022-07-29T16:45:37;25.00;99.60
46458;DHT22;32155;54.076;12.092;2022-07-29T16:48:03;25.00;99.80
46458;DHT22;32155;54.076;12.092;2022-07-29T16:50:29;24.80;99.90
46458;DHT22;32155;54.076;12.092;2022-07-29T16:52:56;24.60;99.90
46458;DHT22;32155;54.076;12.092;2022-07-29T16:55:25;24.60;99.90
46458;DHT22;32155;54.076;12.092;2022-07-29T16:57:51;24.60;99.90
46458;DHT22;32155;54.076;12.092;2022-07-29T17:00:17;24.60;99.90
46458;DHT22;32155;54.076;12.092;2022-07-29T17:02:46;24.50;99.90
46458;DHT22;32155;54.076;12.092;2022-07-29T17:05:11;24.40;99.90
46458;DHT22;32155;54.076;12.092;2022-07-29T17:07:40;24.40;99.90
46458;DHT22;32155;54.076;12.092;2022-07-29T17:10:06;24.50;99.90
46458;DHT22;32155;54.076;12.092;2022-07-29T17:12:33;24.30;99.90
46458;DHT22;32155;54.076;12.092;2022-07-29T17:15:00;24.20;99.90
46458;DHT22;32155;54.076;12.092;2022-07-29T17:17:26;24.30;99.90
46458;DHT22;32155;54.076;12.092;2022-07-29T17:19:52;24.20;99.90
46458;DHT22;32155;54.076;12.092;2022-07-29T17:22:17;24.10;99.90
46458;DHT22;32155;54.076;12.092;2022-07-29T17:24:43;24.00;99.90
46458;DHT22;32155;54.076;12.092;2022-07-29T17:27:09;23.90;99.90
46458;DHT22;32155;54.076;12.092;2022-07-29T17:29:35;23.70;99.90
46458;DHT22;32155;54.076;12.092;2022-07-29T17:32:01;23.60;99.90
46458;DHT22;32155;54.076;12.092;2022-07-29T17:34:26;23.60;99.90
46458;DHT22;32155;54.076;12.092;2022-07-29T17:36:52;23.60;99.90
46458;DHT22;32155;54.076;12.092;2022-07-29T17:39:17;23.40;99.90
46458;DHT22;32155;54.076;12.092;2022-07-29T17:41:43;23.20;99.90
46458;DHT22;32155;54.076;12.092;2022-07-29T17:44:11;23.20;99.90
46458;DHT22;32155;54.076;12.092;2022-07-29T17:46:36;23.10;99.90
46458;DHT22;32155;54.076;12.092;2022-07-29T17:49:04;22.90;99.90
46458;DHT22;32155;54.076;12.092;2022-07-29T17:51:30;22.90;99.90
46458;DHT22;32155;54.076;12.092;2022-07-29T17:53:55;22.80;99.90
46458;DHT22;32155;54.076;12.092;2022-07-29T17:56:22;22.60;99.90
46458;DHT22;32155;54.076;12.092;2022-07-29T17:58:48;22.60;99.90
46458;DHT22;32155;54.076;12.092;2022-07-29T18:01:16;22.60;99.90
46458;DHT22;32155;54.076;12.092;2022-07-29T18:03:42;22.50;99.90
46458;DHT22;32155;54.076;12.092;2022-07-29T18:06:10;22.50;99.90
46458;DHT22;32155;54.076;12.092;2022-07-29T18:08:36;22.40;99.90
46458;DHT22;32155;54.076;12.092;2022-07-29T18:11:02;22.30;99.90
46458;DHT22;32155;54.076;12.092;2022-07-29T18:13:27;22.30;99.90
46458;DHT22;32155;54.076;12.092;2022-07-29T18:15:53;22.30;99.90
46458;DHT22;32155;54.076;12.092;2022-07-29T18:18:18;22.30;99.90
46458;DHT22;32155;54.076;12.092;2022-07-29T18:20:44;22.20;99.90
46458;DHT22;32155;54.076;12.092;2022-07-29T18:23:10;22.20;99.90
46458;DHT22;32155;54.076;12.092;2022-07-29T18:25:36;22.20;99.90
46458;DHT22;32155;54.076;12.092;2022-07-29T18:28:02;22.10;99.90
46458;DHT22;32155;54.076;12.092;2022-07-29T18:30:28;22.20;99.90
46458;DHT22;32155;54.076;12.092;2022-07-29T18:33:00;22.10;99.90
46458;DHT22;32155;54.076;12.092;2022-07-29T18:35:27;22.00;99.90
46458;DHT22;32155;54.076;12.092;2022-07-29T18:37:54;22.00;99.90
46458;DHT22;32155;54.076;12.092;2022-07-29T18:40:20;21.90;99.90
46458;DHT22;32155;54.076;12.092;2022-07-29T18:42:48;21.90;99.90
46458;DHT22;32155;54.076;12.092;2022-07-29T18:45:13;21.80;99.90
46458;DHT22;32155;54.076;12.092;2022-07-29T18:47:39;21.70;99.90
46458;DHT22;32155;54.076;12.092;2022-07-29T18:50:05;21.60;99.90
46458;DHT22;32155;54.076;12.092;2022-07-29T18:52:30;21.60;99.90
46458;DHT22;32155;54.076;12.092;2022-07-29T18:54:56;21.50;99.90
46458;DHT22;32155;54.076;12.092;2022-07-29T18:57:21;21.40;99.90
46458;DHT22;32155;54.076;12.092;2022-07-29T18:59:47;21.30;99.90
46458;DHT22;32155;54.076;12.092;2022-07-29T19:02:15;21.30;99.90
46458;DHT22;32155;54.076;12.092;2022-07-29T19:04:41;21.20;99.90
46458;DHT22;32155;54.076;12.092;2022-07-29T19:07:07;21.10;99.90
46458;DHT22;32155;54.076;12.092;2022-07-29T19:09:32;21.10;99.90
46458;DHT22;32155;54.076;12.092;2022-07-29T19:12:01;21.10;99.90
46458;DHT22;32155;54.076;12.092;2022-07-29T19:14:26;21.00;99.90
46458;DHT22;32155;54.076;12.092;2022-07-29T19:16:52;21.00;99.90
46458;DHT22;32155;54.076;12.092;2022-07-29T19:19:17;20.90;99.90
46458;DHT22;32155;54.076;12.092;2022-07-29T19:21:43;20.80;99.90
46458;DHT22;32155;54.076;12.092;2022-07-29T19:24:09;20.80;99.90
46458;DHT22;32155;54.076;12.092;2022-07-29T19:26:34;20.80;99.90
46458;DHT22;32155;54.076;12.092;2022-07-29T19:29:01;20.80;99.90
46458;DHT22;32155;54.076;12.092;2022-07-29T19:31:26;20.70;99.90
46458;DHT22;32155;54.076;12.092;2022-07-29T19:33:52;20.70;99.90
46458;DHT22;32155;54.076;12.092;2022-07-29T19:36:18;20.60;99.90
46458;DHT22;32155;54.076;12.092;2022-07-29T19:38:44;20.60;99.90
46458;DHT22;32155;54.076;12.092;2022-07-29T19:41:09;20.50;99.90
46458;DHT22;32155;54.076;12.092;2022-07-29T19:43:35;20.50;99.90
46458;DHT22;32155;54.076;12.092;2022-07-29T19:46:01;20.50;99.90
46458;DHT22;32155;54.076;12.092;2022-07-29T19:48:27;20.40;99.90
46458;DHT22;32155;54.076;12.092;2022-07-29T19:50:52;20.40;99.90
46458;DHT22;32155;54.076;12.092;2022-07-29T19:53:18;20.30;99.90
46458;DHT22;32155;54.076;12.092;2022-07-29T19:55:43;20.30;99.90
46458;DHT22;32155;54.076;12.092;2022-07-29T19:58:09;20.20;99.90
46458;DHT22;32155;54.076;12.092;2022-07-29T20:00:35;20.20;99.90
46458;DHT22;32155;54.076;12.092;2022-07-29T20:03:03;20.20;99.90
46458;DHT22;32155;54.076;12.092;2022-07-29T20:05:29;20.10;99.90
46458;DHT22;32155;54.076;12.092;2022-07-29T20:07:55;20.10;99.90
46458;DHT22;32155;54.076;12.092;2022-07-29T20:10:21;20.00;99.90
46458;DHT22;32155;54.076;12.092;2022-07-29T20:12:46;20.00;99.90
46458;DHT22;32155;54.076;12.092;2022-07-29T20:15:12;20.00;99.90
46458;DHT22;32155;54.076;12.092;2022-07-29T20:17:39;19.90;99.90
46458;DHT22;32155;54.076;12.092;2022-07-29T20:20:07;19.90;99.90